sensor_id;sensor_type;location;lat;lon;timestamp;P1;durP1;ratioP1;P2;durP2;ratioP2
26325;SDS011;14032;52.510;7.342;2023-07-28T00:02:05;49.10;;;18.75;;
26325;SDS011;14032;52.510;7.342;2023-07-28T00:04:31;40.75;;;17.00;;
26325;SDS011;14032;52.510;7.342;2023-07-28T00:06:58;36.80;;;17.02;;
26325;SDS011;14032;52.510;7.342;2023-07-28T00:09:24;35.20;;;16.55;;
26325;SDS011;14032;52.510;7.342;2023-07-28T00:11:49;35.13;;;16.60;;
26325;SDS011;14032;52.510;7.342;2023-07-28T00:14:15;36.35;;;16.10;;
26325;SDS011;14032;52.510;7.342;2023-07-28T00:16:40;38.35;;;17.33;;
26325;SDS011;14032;52.510;7.342;2023-07-28T00:19:06;34.80;;;17.27;;
26325;SDS011;14032;52.510;7.342;2023-07-28T00:21:32;34.70;;;16.02;;
26325;SDS011;14032;52.510;7.342;2023-07-28T00:23:57;39.63;;;17.20;;
26325;SDS011;14032;52.510;7.342;2023-07-28T00:26:23;35.25;;;16.48;;
26325;SDS011;14032;52.510;7.342;2023-07-28T00:28:48;31.08;;;15.80;;
26325;SDS011;14032;52.510;7.342;2023-07-28T00:31:14;34.22;;;15.48;;
26325;SDS011;14032;52.510;7.342;2023-07-28T00:33:39;38.63;;;16.40;;
26325;SDS011;14032;52.510;7.342;2023-07-28T00:36:05;39.50;;;17.02;;
26325;SDS011;14032;52.510;7.342;2023-07-28T00:38:31;31.27;;;15.57;;
26325;SDS011;14032;52.510;7.342;2023-07-28T00:40:56;30.38;;;16.30;;
26325;SDS011;14032;52.510;7.342;2023-07-28T00:43:22;41.33;;;17.60;;
26325;SDS011;14032;52.510;7.342;2023-07-28T00:45:48;37.13;;;18.08;;
26325;SDS011;14032;52.510;7.342;2023-07-28T00:48:14;34.95;;;17.42;;
26325;SDS011;14032;52.510;7.342;2023-07-28T00:50:49;41.25;;;18.27;;
26325;SDS011;14032;52.510;7.342;2023-07-28T00:53:16;40.67;;;18.58;;
26325;SDS011;14032;52.510;7.342;2023-07-28T00:55:41;41.13;;;19.45;;
26325;SDS011;14032;52.510;7.342;2023-07-28T00:58:08;37.00;;;18.70;;
26325;SDS011;14032;52.510;7.342;2023-07-28T01:03:09;39.25;;;19.05;;
26325;SDS011;14032;52.510;7.342;2023-07-28T01:08:23;35.30;;;19.45;;
26325;SDS011;14032;52.510;7.342;2023-07-28T01:10:53;46.70;;;20.63;;
26325;SDS011;14032;52.510;7.342;2023-07-28T01:13:19;35.80;;;19.55;;
26325;SDS011;14032;52.510;7.342;2023-07-28T01:15:45;42.55;;;21.15;;
26325;SDS011;14032;52.510;7.342;2023-07-28T01:18:11;44.17;;;22.08;;
26325;SDS011;14032;52.510;7.342;2023-07-28T01:20:36;42.22;;;21.13;;
26325;SDS011;14032;52.510;7.342;2023-07-28T01:23:05;49.47;;;22.45;;
26325;SDS011;14032;52.510;7.342;2023-07-28T01:25:49;44.08;;;20.65;;
26325;SDS011;14032;52.510;7.342;2023-07-28T01:28:33;38.87;;;19.33;;
26325;SDS011;14032;52.510;7.342;2023-07-28T01:31:01;43.85;;;21.63;;
26325;SDS011;14032;52.510;7.342;2023-07-28T01:33:28;42.25;;;19.83;;
26325;SDS011;14032;52.510;7.342;2023-07-28T01:35:54;48.80;;;21.20;;
26325;SDS011;14032;52.510;7.342;2023-07-28T01:38:19;38.38;;;20.63;;
26325;SDS011;14032;52.510;7.342;2023-07-28T01:40:45;43.05;;;20.13;;
26325;SDS011;14032;52.510;7.342;2023-07-28T01:43:10;36.80;;;19.20;;
26325;SDS011;14032;52.510;7.342;2023-07-28T01:45:36;44.88;;;20.17;;
26325;SDS011;14032;52.510;7.342;2023-07-28T01:48:01;43.85;;;21.77;;
26325;SDS011;14032;52.510;7.342;2023-07-28T01:50:27;45.60;;;20.55;;
26325;SDS011;14032;52.510;7.342;2023-07-28T01:52:53;42.83;;;20.70;;
26325;SDS011;14032;52.510;7.342;2023-07-28T01:55:18;36.40;;;19.90;;
26325;SDS011;14032;52.510;7.342;2023-07-28T01:57:54;42.67;;;20.83;;
26325;SDS011;14032;52.510;7.342;2023-07-28T02:00:23;40.47;;;19.40;;
26325;SDS011;14032;52.510;7.342;2023-07-28T02:02:50;34.03;;;17.90;;
26325;SDS011;14032;52.510;7.342;2023-07-28T02:05:15;44.03;;;21.95;;
26325;SDS011;14032;52.510;7.342;2023-07-28T02:07:41;45.90;;;20.75;;
26325;SDS011;14032;52.510;7.342;2023-07-28T02:10:08;42.97;;;20.75;;
26325;SDS011;14032;52.510;7.342;2023-07-28T02:12:35;49.33;;;22.00;;
26325;SDS011;14032;52.510;7.342;2023-07-28T02:15:01;41.75;;;20.98;;
26325;SDS011;14032;52.510;7.342;2023-07-28T02:17:26;40.63;;;19.77;;
26325;SDS011;14032;52.510;7.342;2023-07-28T02:19:52;46.13;;;20.10;;
26325;SDS011;14032;52.510;7.342;2023-07-28T02:22:17;41.47;;;20.38;;
26325;SDS011;14032;52.510;7.342;2023-07-28T02:24:43;43.53;;;20.90;;
26325;SDS011;14032;52.510;7.342;2023-07-28T02:27:09;45.25;;;21.55;;
26325;SDS011;14032;52.510;7.342;2023-07-28T02:29:34;47.20;;;21.00;;
26325;SDS011;14032;52.510;7.342;2023-07-28T02:32:00;42.63;;;20.35;;
26325;SDS011;14032;52.510;7.342;2023-07-28T02:34:25;42.67;;;21.23;;
26325;SDS011;14032;52.510;7.342;2023-07-28T02:36:51;49.45;;;20.95;;
26325;SDS011;14032;52.510;7.342;2023-07-28T02:39:16;43.60;;;21.98;;
26325;SDS011;14032;52.510;7.342;2023-07-28T02:41:42;44.55;;;21.45;;
26325;SDS011;14032;52.510;7.342;2023-07-28T02:44:07;48.97;;;21.40;;
26325;SDS011;14032;52.510;7.342;2023-07-28T02:46:33;45.20;;;20.48;;
26325;SDS011;14032;52.510;7.342;2023-07-28T02:48:59;46.97;;;21.40;;
26325;SDS011;14032;52.510;7.342;2023-07-28T02:51:24;42.95;;;19.65;;
26325;SDS011;14032;52.510;7.342;2023-07-28T02:53:50;39.65;;;20.00;;
26325;SDS011;14032;52.510;7.342;2023-07-28T02:56:15;44.53;;;21.55;;
26325;SDS011;14032;52.510;7.342;2023-07-28T02:58:41;37.17;;;19.38;;
26325;SDS011;14032;52.510;7.342;2023-07-28T03:01:06;43.80;;;20.38;;
26325;SDS011;14032;52.510;7.342;2023-07-28T03:03:32;37.03;;;18.75;;
26325;SDS011;14032;52.510;7.342;2023-07-28T03:05:57;38.67;;;18.85;;
26325;SDS011;14032;52.510;7.342;2023-07-28T03:08:23;43.65;;;20.10;;
26325;SDS011;14032;52.510;7.342;2023-07-28T03:10:48;37.55;;;19.42;;
26325;SDS011;14032;52.510;7.342;2023-07-28T03:13:14;38.15;;;19.33;;
26325;SDS011;14032;52.510;7.342;2023-07-28T03:15:39;43.80;;;22.25;;
26325;SDS011;14032;52.510;7.342;2023-07-28T03:18:05;38.03;;;19.73;;
26325;SDS011;14032;52.510;7.342;2023-07-28T03:20:31;39.38;;;20.17;;
26325;SDS011;14032;52.510;7.342;2023-07-28T03:22:56;40.10;;;21.15;;
26325;SDS011;14032;52.510;7.342;2023-07-28T03:25:22;40.92;;;20.98;;
26325;SDS011;14032;52.510;7.342;2023-07-28T03:27:47;43.65;;;21.27;;
26325;SDS011;14032;52.510;7.342;2023-07-28T03:30:13;43.53;;;20.60;;
26325;SDS011;14032;52.510;7.342;2023-07-28T03:32:38;45.35;;;22.13;;
26325;SDS011;14032;52.510;7.342;2023-07-28T03:35:04;45.35;;;21.83;;
26325;SDS011;14032;52.510;7.342;2023-07-28T03:37:31;46.30;;;21.85;;
26325;SDS011;14032;52.510;7.342;2023-07-28T03:39:57;44.40;;;22.02;;
26325;SDS011;14032;52.510;7.342;2023-07-28T03:42:22;39.42;;;21.17;;
26325;SDS011;14032;52.510;7.342;2023-07-28T03:44:48;42.05;;;22.40;;
26325;SDS011;14032;52.510;7.342;2023-07-28T03:47:14;42.60;;;21.88;;
26325;SDS011;14032;52.510;7.342;2023-07-28T03:49:40;56.58;;;24.00;;
26325;SDS011;14032;52.510;7.342;2023-07-28T03:52:05;46.28;;;22.67;;
26325;SDS011;14032;52.510;7.342;2023-07-28T03:54:31;50.20;;;21.67;;
26325;SDS011;14032;52.510;7.342;2023-07-28T03:56:56;45.78;;;22.52;;
26325;SDS011;14032;52.510;7.342;2023-07-28T03:59:22;41.85;;;21.33;;
26325;SDS011;14032;52.510;7.342;2023-07-28T04:01:47;36.85;;;20.50;;
26325;SDS011;14032;52.510;7.342;2023-07-28T04:04:13;42.65;;;21.92;;
26325;SDS011;14032;52.510;7.342;2023-07-28T04:06:42;41.97;;;22.45;;
26325;SDS011;14032;52.510;7.342;2023-07-28T04:09:08;44.88;;;22.80;;
26325;SDS011;14032;52.510;7.342;2023-07-28T04:11:34;42.10;;;21.17;;
26325;SDS011;14032;52.510;7.342;2023-07-28T04:14:00;45.08;;;22.83;;
26325;SDS011;14032;52.510;7.342;2023-07-28T04:16:26;45.97;;;22.83;;
26325;SDS011;14032;52.510;7.342;2023-07-28T04:18:52;45.42;;;22.83;;
26325;SDS011;14032;52.510;7.342;2023-07-28T04:21:17;47.55;;;22.98;;
26325;SDS011;14032;52.510;7.342;2023-07-28T04:23:43;40.03;;;21.83;;
26325;SDS011;14032;52.510;7.342;2023-07-28T04:26:08;45.15;;;24.23;;
26325;SDS011;14032;52.510;7.342;2023-07-28T04:28:34;39.53;;;20.52;;
26325;SDS011;14032;52.510;7.342;2023-07-28T04:31:00;58.08;;;24.17;;
26325;SDS011;14032;52.510;7.342;2023-07-28T04:33:25;40.47;;;21.75;;
26325;SDS011;14032;52.510;7.342;2023-07-28T04:35:51;41.72;;;21.40;;
26325;SDS011;14032;52.510;7.342;2023-07-28T04:38:16;43.50;;;23.55;;
26325;SDS011;14032;52.510;7.342;2023-07-28T04:40:43;46.13;;;24.85;;
26325;SDS011;14032;52.510;7.342;2023-07-28T04:43:09;39.75;;;20.75;;
26325;SDS011;14032;52.510;7.342;2023-07-28T04:45:34;50.40;;;23.70;;
26325;SDS011;14032;52.510;7.342;2023-07-28T04:48:00;43.45;;;21.70;;
26325;SDS011;14032;52.510;7.342;2023-07-28T04:50:26;44.65;;;22.92;;
26325;SDS011;14032;52.510;7.342;2023-07-28T04:52:52;42.85;;;22.30;;
26325;SDS011;14032;52.510;7.342;2023-07-28T04:55:18;42.05;;;20.60;;
26325;SDS011;14032;52.510;7.342;2023-07-28T04:57:44;42.03;;;22.58;;
26325;SDS011;14032;52.510;7.342;2023-07-28T05:00:09;38.55;;;20.83;;
26325;SDS011;14032;52.510;7.342;2023-07-28T05:02:35;42.33;;;22.27;;
26325;SDS011;14032;52.510;7.342;2023-07-28T05:05:01;35.95;;;20.98;;
26325;SDS011;14032;52.510;7.342;2023-07-28T05:07:27;41.40;;;20.25;;
26325;SDS011;14032;52.510;7.342;2023-07-28T05:09:54;40.70;;;22.23;;
26325;SDS011;14032;52.510;7.342;2023-07-28T05:12:19;38.97;;;20.83;;
26325;SDS011;14032;52.510;7.342;2023-07-28T05:14:45;41.13;;;21.15;;
26325;SDS011;14032;52.510;7.342;2023-07-28T05:17:11;34.88;;;19.80;;
26325;SDS011;14032;52.510;7.342;2023-07-28T05:19:36;39.85;;;22.02;;
26325;SDS011;14032;52.510;7.342;2023-07-28T05:22:02;40.13;;;21.00;;
26325;SDS011;14032;52.510;7.342;2023-07-28T05:24:28;43.05;;;21.48;;
26325;SDS011;14032;52.510;7.342;2023-07-28T05:26:54;38.70;;;19.42;;
26325;SDS011;14032;52.510;7.342;2023-07-28T05:29:19;40.97;;;21.17;;
26325;SDS011;14032;52.510;7.342;2023-07-28T05:31:45;35.83;;;20.65;;
26325;SDS011;14032;52.510;7.342;2023-07-28T05:34:11;35.42;;;20.05;;
26325;SDS011;14032;52.510;7.342;2023-07-28T05:36:38;35.97;;;20.58;;
26325;SDS011;14032;52.510;7.342;2023-07-28T05:39:03;40.13;;;20.58;;
26325;SDS011;14032;52.510;7.342;2023-07-28T05:41:29;34.25;;;19.33;;
26325;SDS011;14032;52.510;7.342;2023-07-28T05:43:55;38.85;;;20.88;;
26325;SDS011;14032;52.510;7.342;2023-07-28T05:46:21;44.83;;;21.15;;
26325;SDS011;14032;52.510;7.342;2023-07-28T05:48:46;32.72;;;19.02;;
26325;SDS011;14032;52.510;7.342;2023-07-28T05:51:12;42.20;;;21.50;;
26325;SDS011;14032;52.510;7.342;2023-07-28T05:53:38;43.83;;;22.40;;
26325;SDS011;14032;52.510;7.342;2023-07-28T05:56:03;38.10;;;19.75;;
26325;SDS011;14032;52.510;7.342;2023-07-28T05:58:29;34.08;;;19.20;;
26325;SDS011;14032;52.510;7.342;2023-07-28T06:00:54;41.05;;;20.70;;
26325;SDS011;14032;52.510;7.342;2023-07-28T06:03:21;40.85;;;21.23;;
26325;SDS011;14032;52.510;7.342;2023-07-28T06:05:48;40.67;;;20.52;;
26325;SDS011;14032;52.510;7.342;2023-07-28T06:08:13;32.28;;;19.23;;
26325;SDS011;14032;52.510;7.342;2023-07-28T06:10:39;32.83;;;19.08;;
26325;SDS011;14032;52.510;7.342;2023-07-28T06:13:04;35.22;;;18.63;;
26325;SDS011;14032;52.510;7.342;2023-07-28T06:15:30;41.05;;;20.52;;
26325;SDS011;14032;52.510;7.342;2023-07-28T06:17:56;34.20;;;19.38;;
26325;SDS011;14032;52.510;7.342;2023-07-28T06:20:21;36.72;;;19.00;;
26325;SDS011;14032;52.510;7.342;2023-07-28T06:22:47;35.10;;;19.00;;
26325;SDS011;14032;52.510;7.342;2023-07-28T06:25:13;30.70;;;18.00;;
26325;SDS011;14032;52.510;7.342;2023-07-28T06:27:38;31.85;;;18.20;;
26325;SDS011;14032;52.510;7.342;2023-07-28T06:30:04;34.85;;;19.23;;
26325;SDS011;14032;52.510;7.342;2023-07-28T06:32:30;35.03;;;19.60;;
26325;SDS011;14032;52.510;7.342;2023-07-28T06:34:56;31.90;;;17.83;;
26325;SDS011;14032;52.510;7.342;2023-07-28T06:37:22;27.27;;;16.52;;
26325;SDS011;14032;52.510;7.342;2023-07-28T06:39:48;32.63;;;17.05;;
26325;SDS011;14032;52.510;7.342;2023-07-28T06:42:14;28.60;;;17.35;;
26325;SDS011;14032;52.510;7.342;2023-07-28T06:44:41;29.77;;;17.80;;
26325;SDS011;14032;52.510;7.342;2023-07-28T06:47:07;23.63;;;15.07;;
26325;SDS011;14032;52.510;7.342;2023-07-28T06:49:32;29.42;;;17.02;;
26325;SDS011;14032;52.510;7.342;2023-07-28T06:51:58;28.38;;;16.70;;
26325;SDS011;14032;52.510;7.342;2023-07-28T06:54:24;24.08;;;13.75;;
26325;SDS011;14032;52.510;7.342;2023-07-28T06:56:50;20.35;;;14.25;;
26325;SDS011;14032;52.510;7.342;2023-07-28T06:59:15;20.63;;;14.65;;
26325;SDS011;14032;52.510;7.342;2023-07-28T07:01:41;22.58;;;14.02;;
26325;SDS011;14032;52.510;7.342;2023-07-28T07:04:07;22.77;;;12.95;;
26325;SDS011;14032;52.510;7.342;2023-07-28T07:06:32;19.65;;;13.25;;
26325;SDS011;14032;52.510;7.342;2023-07-28T07:08:58;21.85;;;13.60;;
26325;SDS011;14032;52.510;7.342;2023-07-28T07:11:24;22.92;;;13.15;;
26325;SDS011;14032;52.510;7.342;2023-07-28T07:13:49;31.35;;;13.43;;
26325;SDS011;14032;52.510;7.342;2023-07-28T07:16:15;19.98;;;12.57;;
26325;SDS011;14032;52.510;7.342;2023-07-28T07:18:44;17.65;;;12.40;;
26325;SDS011;14032;52.510;7.342;2023-07-28T07:21:10;21.60;;;13.25;;
26325;SDS011;14032;52.510;7.342;2023-07-28T07:23:36;20.33;;;13.13;;
26325;SDS011;14032;52.510;7.342;2023-07-28T07:26:02;21.67;;;12.45;;
26325;SDS011;14032;52.510;7.342;2023-07-28T07:28:29;18.52;;;13.05;;
26325;SDS011;14032;52.510;7.342;2023-07-28T07:30:55;17.23;;;11.82;;
26325;SDS011;14032;52.510;7.342;2023-07-28T07:33:20;22.65;;;12.98;;
26325;SDS011;14032;52.510;7.342;2023-07-28T07:35:46;18.13;;;11.13;;
26325;SDS011;14032;52.510;7.342;2023-07-28T07:38:12;22.65;;;11.10;;
26325;SDS011;14032;52.510;7.342;2023-07-28T07:40:38;18.77;;;11.85;;
26325;SDS011;14032;52.510;7.342;2023-07-28T07:43:03;20.08;;;12.20;;
26325;SDS011;14032;52.510;7.342;2023-07-28T07:45:29;20.23;;;12.48;;
26325;SDS011;14032;52.510;7.342;2023-07-28T07:47:55;16.67;;;10.55;;
26325;SDS011;14032;52.510;7.342;2023-07-28T07:50:21;18.58;;;11.75;;
26325;SDS011;14032;52.510;7.342;2023-07-28T07:52:47;25.30;;;10.63;;
26325;SDS011;14032;52.510;7.342;2023-07-28T07:55:13;18.02;;;9.80;;
26325;SDS011;14032;52.510;7.342;2023-07-28T07:57:39;15.20;;;9.90;;
26325;SDS011;14032;52.510;7.342;2023-07-28T08:00:05;16.17;;;8.93;;
26325;SDS011;14032;52.510;7.342;2023-07-28T08:02:31;15.27;;;9.60;;
26325;SDS011;14032;52.510;7.342;2023-07-28T08:04:56;14.43;;;9.02;;
26325;SDS011;14032;52.510;7.342;2023-07-28T08:07:22;14.98;;;8.43;;
26325;SDS011;14032;52.510;7.342;2023-07-28T08:09:48;18.52;;;8.93;;
26325;SDS011;14032;52.510;7.342;2023-07-28T08:12:17;15.73;;;9.00;;
26325;SDS011;14032;52.510;7.342;2023-07-28T08:14:43;14.45;;;9.35;;
26325;SDS011;14032;52.510;7.342;2023-07-28T08:17:10;17.33;;;9.82;;
26325;SDS011;14032;52.510;7.342;2023-07-28T08:19:35;15.85;;;8.90;;
26325;SDS011;14032;52.510;7.342;2023-07-28T08:22:01;15.55;;;9.65;;
26325;SDS011;14032;52.510;7.342;2023-07-28T08:24:30;18.42;;;10.60;;
26325;SDS011;14032;52.510;7.342;2023-07-28T08:26:57;19.90;;;10.65;;
26325;SDS011;14032;52.510;7.342;2023-07-28T08:29:22;20.92;;;10.15;;
26325;SDS011;14032;52.510;7.342;2023-07-28T08:31:48;15.63;;;10.40;;
26325;SDS011;14032;52.510;7.342;2023-07-28T08:34:13;15.25;;;10.52;;
26325;SDS011;14032;52.510;7.342;2023-07-28T08:36:40;15.52;;;10.43;;
26325;SDS011;14032;52.510;7.342;2023-07-28T08:39:06;19.55;;;10.07;;
26325;SDS011;14032;52.510;7.342;2023-07-28T08:41:31;19.58;;;9.23;;
26325;SDS011;14032;52.510;7.342;2023-07-28T08:43:57;16.98;;;9.65;;
26325;SDS011;14032;52.510;7.342;2023-07-28T08:46:23;20.90;;;9.95;;
26325;SDS011;14032;52.510;7.342;2023-07-28T08:48:48;19.35;;;10.82;;
26325;SDS011;14032;52.510;7.342;2023-07-28T08:51:14;16.90;;;9.95;;
26325;SDS011;14032;52.510;7.342;2023-07-28T08:53:40;13.93;;;8.98;;
26325;SDS011;14032;52.510;7.342;2023-07-28T08:56:06;16.42;;;8.63;;
26325;SDS011;14032;52.510;7.342;2023-07-28T08:58:31;18.20;;;9.73;;
26325;SDS011;14032;52.510;7.342;2023-07-28T09:00:57;15.90;;;9.60;;
26325;SDS011;14032;52.510;7.342;2023-07-28T09:03:26;12.15;;;8.68;;
26325;SDS011;14032;52.510;7.342;2023-07-28T09:05:53;12.93;;;7.88;;
26325;SDS011;14032;52.510;7.342;2023-07-28T09:08:24;12.15;;;7.25;;
26325;SDS011;14032;52.510;7.342;2023-07-28T09:10:50;13.95;;;7.63;;
26325;SDS011;14032;52.510;7.342;2023-07-28T09:13:17;15.55;;;7.90;;
26325;SDS011;14032;52.510;7.342;2023-07-28T09:15:43;12.27;;;8.32;;
26325;SDS011;14032;52.510;7.342;2023-07-28T09:18:10;12.55;;;7.32;;
26325;SDS011;14032;52.510;7.342;2023-07-28T09:20:40;9.25;;;6.95;;
26325;SDS011;14032;52.510;7.342;2023-07-28T09:23:07;11.30;;;6.45;;
26325;SDS011;14032;52.510;7.342;2023-07-28T09:25:34;13.43;;;6.65;;
26325;SDS011;14032;52.510;7.342;2023-07-28T09:28:01;12.27;;;6.15;;
26325;SDS011;14032;52.510;7.342;2023-07-28T09:30:27;9.25;;;5.90;;
26325;SDS011;14032;52.510;7.342;2023-07-28T09:33:19;7.32;;;5.22;;
26325;SDS011;14032;52.510;7.342;2023-07-28T09:35:54;7.70;;;5.70;;
26325;SDS011;14032;52.510;7.342;2023-07-28T09:38:19;7.22;;;5.47;;
26325;SDS011;14032;52.510;7.342;2023-07-28T09:40:47;7.70;;;4.45;;
26325;SDS011;14032;52.510;7.342;2023-07-28T09:43:14;6.10;;;4.68;;
26325;SDS011;14032;52.510;7.342;2023-07-28T09:45:39;7.20;;;4.53;;
26325;SDS011;14032;52.510;7.342;2023-07-28T09:48:07;8.02;;;4.10;;
26325;SDS011;14032;52.510;7.342;2023-07-28T09:50:36;6.47;;;3.72;;
26325;SDS011;14032;52.510;7.342;2023-07-28T09:53:03;5.60;;;3.72;;
26325;SDS011;14032;52.510;7.342;2023-07-28T09:55:29;5.35;;;3.25;;
26325;SDS011;14032;52.510;7.342;2023-07-28T09:57:56;5.82;;;3.53;;
26325;SDS011;14032;52.510;7.342;2023-07-28T10:00:25;5.50;;;3.67;;
26325;SDS011;14032;52.510;7.342;2023-07-28T10:02:51;12.77;;;4.05;;
26325;SDS011;14032;52.510;7.342;2023-07-28T10:05:18;4.63;;;3.42;;
26325;SDS011;14032;52.510;7.342;2023-07-28T10:07:44;5.18;;;3.30;;
26325;SDS011;14032;52.510;7.342;2023-07-28T10:10:13;6.20;;;4.30;;
26325;SDS011;14032;52.510;7.342;2023-07-28T10:12:46;6.80;;;4.88;;
26325;SDS011;14032;52.510;7.342;2023-07-28T10:15:14;6.22;;;4.55;;
26325;SDS011;14032;52.510;7.342;2023-07-28T10:17:45;6.63;;;5.07;;
26325;SDS011;14032;52.510;7.342;2023-07-28T10:20:27;7.53;;;5.03;;
26325;SDS011;14032;52.510;7.342;2023-07-28T10:23:03;11.93;;;5.93;;
26325;SDS011;14032;52.510;7.342;2023-07-28T10:25:32;7.65;;;5.43;;
26325;SDS011;14032;52.510;7.342;2023-07-28T10:28:00;7.18;;;5.80;;
26325;SDS011;14032;52.510;7.342;2023-07-28T10:30:27;10.00;;;6.63;;
26325;SDS011;14032;52.510;7.342;2023-07-28T10:32:54;9.88;;;6.75;;
26325;SDS011;14032;52.510;7.342;2023-07-28T10:35:24;7.00;;;5.90;;
26325;SDS011;14032;52.510;7.342;2023-07-28T10:37:52;8.75;;;6.95;;
26325;SDS011;14032;52.510;7.342;2023-07-28T10:42:59;13.23;;;7.30;;
26325;SDS011;14032;52.510;7.342;2023-07-28T10:45:26;8.85;;;6.55;;
26325;SDS011;14032;52.510;7.342;2023-07-28T10:47:53;8.75;;;5.35;;
26325;SDS011;14032;52.510;7.342;2023-07-28T10:50:21;13.52;;;7.18;;
26325;SDS011;14032;52.510;7.342;2023-07-28T10:52:47;8.30;;;6.65;;
26325;SDS011;14032;52.510;7.342;2023-07-28T10:55:17;9.07;;;6.40;;
26325;SDS011;14032;52.510;7.342;2023-07-28T10:57:47;8.30;;;7.00;;
26325;SDS011;14032;52.510;7.342;2023-07-28T11:00:16;12.35;;;7.13;;
26325;SDS011;14032;52.510;7.342;2023-07-28T11:02:43;8.95;;;7.70;;
26325;SDS011;14032;52.510;7.342;2023-07-28T11:05:19;11.93;;;9.07;;
26325;SDS011;14032;52.510;7.342;2023-07-28T11:07:47;12.82;;;9.30;;
26325;SDS011;14032;52.510;7.342;2023-07-28T11:10:13;12.30;;;9.43;;
26325;SDS011;14032;52.510;7.342;2023-07-28T11:12:43;12.48;;;8.75;;
26325;SDS011;14032;52.510;7.342;2023-07-28T11:15:10;11.50;;;8.25;;
26325;SDS011;14032;52.510;7.342;2023-07-28T11:17:38;11.20;;;8.38;;
26325;SDS011;14032;52.510;7.342;2023-07-28T11:20:09;10.55;;;8.38;;
26325;SDS011;14032;52.510;7.342;2023-07-28T11:22:44;12.95;;;7.50;;
26325;SDS011;14032;52.510;7.342;2023-07-28T11:25:10;11.93;;;7.68;;
26325;SDS011;14032;52.510;7.342;2023-07-28T11:27:37;14.32;;;7.40;;
26325;SDS011;14032;52.510;7.342;2023-07-28T11:30:03;11.82;;;8.10;;
26325;SDS011;14032;52.510;7.342;2023-07-28T11:32:30;10.45;;;7.50;;
26325;SDS011;14032;52.510;7.342;2023-07-28T11:35:02;9.95;;;7.00;;
26325;SDS011;14032;52.510;7.342;2023-07-28T11:37:35;9.57;;;8.23;;
26325;SDS011;14032;52.510;7.342;2023-07-28T11:40:03;10.00;;;7.65;;
26325;SDS011;14032;52.510;7.342;2023-07-28T11:42:35;9.35;;;7.50;;
26325;SDS011;14032;52.510;7.342;2023-07-28T11:45:18;10.60;;;7.55;;
26325;SDS011;14032;52.510;7.342;2023-07-28T11:48:18;13.27;;;8.68;;
26325;SDS011;14032;52.510;7.342;2023-07-28T11:50:40;9.95;;;7.30;;
26325;SDS011;14032;52.510;7.342;2023-07-28T11:53:07;13.27;;;9.43;;
26325;SDS011;14032;52.510;7.342;2023-07-28T11:55:37;15.23;;;7.93;;
26325;SDS011;14032;52.510;7.342;2023-07-28T11:58:07;10.50;;;8.15;;
26325;SDS011;14032;52.510;7.342;2023-07-28T12:00:37;16.60;;;8.63;;
26325;SDS011;14032;52.510;7.342;2023-07-28T12:03:11;12.65;;;8.00;;
26325;SDS011;14032;52.510;7.342;2023-07-28T12:05:38;9.38;;;7.07;;
26325;SDS011;14032;52.510;7.342;2023-07-28T12:08:04;12.40;;;7.72;;
26325;SDS011;14032;52.510;7.342;2023-07-28T12:10:34;15.85;;;7.30;;
26325;SDS011;14032;52.510;7.342;2023-07-28T12:13:04;10.48;;;7.65;;
26325;SDS011;14032;52.510;7.342;2023-07-28T12:15:31;14.35;;;6.57;;
26325;SDS011;14032;52.510;7.342;2023-07-28T12:20:36;10.60;;;6.45;;
26325;SDS011;14032;52.510;7.342;2023-07-28T12:23:04;12.90;;;7.68;;
26325;SDS011;14032;52.510;7.342;2023-07-28T12:25:31;8.68;;;6.82;;
26325;SDS011;14032;52.510;7.342;2023-07-28T12:27:56;9.55;;;6.80;;
26325;SDS011;14032;52.510;7.342;2023-07-28T12:30:22;9.27;;;6.05;;
26325;SDS011;14032;52.510;7.342;2023-07-28T12:32:48;13.00;;;7.93;;
26325;SDS011;14032;52.510;7.342;2023-07-28T12:35:14;10.18;;;7.32;;
26325;SDS011;14032;52.510;7.342;2023-07-28T12:37:39;11.80;;;8.18;;
26325;SDS011;14032;52.510;7.342;2023-07-28T12:40:05;10.32;;;7.60;;
26325;SDS011;14032;52.510;7.342;2023-07-28T12:42:32;10.95;;;7.43;;
26325;SDS011;14032;52.510;7.342;2023-07-28T12:44:57;10.63;;;6.72;;
26325;SDS011;14032;52.510;7.342;2023-07-28T12:47:23;11.57;;;7.75;;
26325;SDS011;14032;52.510;7.342;2023-07-28T12:49:49;10.90;;;6.47;;
26325;SDS011;14032;52.510;7.342;2023-07-28T12:52:15;13.80;;;7.50;;
26325;SDS011;14032;52.510;7.342;2023-07-28T12:54:40;17.05;;;7.05;;
26325;SDS011;14032;52.510;7.342;2023-07-28T12:57:07;12.00;;;6.85;;
26325;SDS011;14032;52.510;7.342;2023-07-28T12:59:35;12.82;;;7.75;;
26325;SDS011;14032;52.510;7.342;2023-07-28T13:02:01;9.68;;;6.72;;
26325;SDS011;14032;52.510;7.342;2023-07-28T13:04:27;8.63;;;6.57;;
26325;SDS011;14032;52.510;7.342;2023-07-28T13:06:52;8.05;;;6.38;;
26325;SDS011;14032;52.510;7.342;2023-07-28T13:09:18;10.15;;;5.90;;
26325;SDS011;14032;52.510;7.342;2023-07-28T13:11:43;7.65;;;6.15;;
26325;SDS011;14032;52.510;7.342;2023-07-28T13:14:09;9.35;;;6.95;;
26325;SDS011;14032;52.510;7.342;2023-07-28T13:16:36;10.93;;;7.13;;
26325;SDS011;14032;52.510;7.342;2023-07-28T13:19:03;9.73;;;6.95;;
26325;SDS011;14032;52.510;7.342;2023-07-28T13:21:29;9.30;;;6.90;;
26325;SDS011;14032;52.510;7.342;2023-07-28T13:23:54;10.73;;;6.88;;
26325;SDS011;14032;52.510;7.342;2023-07-28T13:26:20;9.13;;;7.20;;
26325;SDS011;14032;52.510;7.342;2023-07-28T13:28:46;10.07;;;7.03;;
26325;SDS011;14032;52.510;7.342;2023-07-28T13:31:17;8.52;;;6.60;;
26325;SDS011;14032;52.510;7.342;2023-07-28T13:33:43;9.32;;;5.75;;
26325;SDS011;14032;52.510;7.342;2023-07-28T13:36:10;10.05;;;6.80;;
26325;SDS011;14032;52.510;7.342;2023-07-28T13:38:36;6.63;;;5.93;;
26325;SDS011;14032;52.510;7.342;2023-07-28T13:41:05;8.95;;;7.35;;
26325;SDS011;14032;52.510;7.342;2023-07-28T13:43:31;8.23;;;7.25;;
26325;SDS011;14032;52.510;7.342;2023-07-28T13:45:58;8.75;;;7.70;;
26325;SDS011;14032;52.510;7.342;2023-07-28T13:48:23;9.55;;;6.82;;
26325;SDS011;14032;52.510;7.342;2023-07-28T13:50:49;11.93;;;7.00;;
26325;SDS011;14032;52.510;7.342;2023-07-28T13:53:15;11.35;;;6.43;;
26325;SDS011;14032;52.510;7.342;2023-07-28T13:55:40;10.10;;;5.80;;
26325;SDS011;14032;52.510;7.342;2023-07-28T13:58:06;8.93;;;6.50;;
26325;SDS011;14032;52.510;7.342;2023-07-28T14:00:32;10.15;;;6.38;;
26325;SDS011;14032;52.510;7.342;2023-07-28T14:02:57;10.75;;;7.35;;
26325;SDS011;14032;52.510;7.342;2023-07-28T14:05:23;7.90;;;6.38;;
26325;SDS011;14032;52.510;7.342;2023-07-28T14:07:49;10.80;;;6.60;;
26325;SDS011;14032;52.510;7.342;2023-07-28T14:10:14;11.52;;;8.23;;
26325;SDS011;14032;52.510;7.342;2023-07-28T14:12:40;8.75;;;7.47;;
26325;SDS011;14032;52.510;7.342;2023-07-28T14:15:06;10.02;;;7.43;;
26325;SDS011;14032;52.510;7.342;2023-07-28T14:17:33;9.23;;;7.20;;
26325;SDS011;14032;52.510;7.342;2023-07-28T14:19:58;11.38;;;7.90;;
26325;SDS011;14032;52.510;7.342;2023-07-28T14:22:24;9.45;;;7.45;;
26325;SDS011;14032;52.510;7.342;2023-07-28T14:24:50;7.35;;;6.43;;
26325;SDS011;14032;52.510;7.342;2023-07-28T14:27:17;8.27;;;6.57;;
26325;SDS011;14032;52.510;7.342;2023-07-28T14:29:42;13.45;;;8.60;;
26325;SDS011;14032;52.510;7.342;2023-07-28T14:32:08;11.15;;;7.38;;
26325;SDS011;14032;52.510;7.342;2023-07-28T14:34:33;12.13;;;7.57;;
26325;SDS011;14032;52.510;7.342;2023-07-28T14:37:05;8.18;;;6.40;;